General Deheza, Argentina
Current Conditions -  °F | °C
As of 8:00 AM on Friday 31 Oct 2014 (Local Time) from SAOC Reporting Station
Moderate Rain Moderate Rain  
Wind Chill: 54°   Ceiling: 5000
Heat Index: 54°   Visibility: 2.5mi
Dew Point: 54°   Wind: 13mph
Humidity: 100%   Direction: 180°S
Pressure: 29.97"   Gusts: 28mph
Location:  32.73°S, 63.77°W
Report Text: SAOC 311100Z 18011G24KT 4000 RA SCT010OVC050 12/12 Q1015
Loading
Personal Weather Stations






























Interactive Weather Map
Tropical Storm Tracking
New forecast layout! Learn more

10-Day Weather Forecast

Advertisements
Track Severe Weather on mobile